Philadelphia, Pennsylvania
Traffic Map
Current Weather Conditions
Philadelphia, Pennsylvania
Clear
Clear
54°
Feels Like: 54°
Wind Chill: 54° Ceiling: Unl
Heat Index: 54° Visibility: 10mi
Dew Point: 46° Wind: 7mph
Humidity: 75% Direction: 330° (NNW)
Pressure: 30.22in Gusts: 0mph
Raw Report DataKPHL 150854Z 33006KT 10SM CLR 12/08 A3022 RMK AO2 SLP232 T01220078 53002
Traffic Incident Summary
Active as of:
Severity:
Category:
InformationThere was an issue retrieving the traffic information for this location. Please try a different location or try again shortly.
Advertisements
Track Severe Weather on mobile